Time;durP1;ratioP1;P1;durP2;ratioP2;P2;SDS_P1;SDS_P2;PMS_P1;PMS_P2;Temp;Humidity;BMP_temperature;BMP_pressure;BME280_temperature;BME280_humidity;BME280_pressure;Samples;Min_cycle;Max_cycle;Signal;HPM_P1;HPM_P2
2023/03/09 00:01:53;;;;;;;40.57;24.10;;;8.40;99.90;;;;;;4898121;29;20056;-73
2023/03/09 00:04:21;;;;;;;35.65;21.05;;;8.00;99.90;;;;;;4896759;29;20052;-73
2023/03/09 00:06:49;;;;;;;36.22;20.27;;;7.90;99.90;;;;;;4908537;29;20461;-71
2023/03/09 00:09:17;;;;;;;36.03;20.70;;;8.00;99.90;;;;;;4903215;29;20060;-73
2023/03/09 00:11:47;;;;;;;35.20;20.17;;;8.00;99.90;;;;;;4924017;29;20374;-74
2023/03/09 00:14:16;;;;;;;39.78;18.88;;;8.10;99.90;;;;;;4908668;29;20051;-72
2023/03/09 00:16:44;;;;;;;33.72;19.13;;;8.00;99.90;;;;;;4913427;29;20062;-73
2023/03/09 00:19:11;;;;;;;40.67;21.48;;;8.00;99.90;;;;;;4926056;29;20047;-72
2023/03/09 00:21:48;;;;;;;36.58;21.25;;;8.20;99.90;;;;;;4915537;29;20143;-71
2023/03/09 00:24:17;;;;;;;32.80;19.42;;;8.10;99.90;;;;;;4898534;29;20472;-71
2023/03/09 00:26:54;;;;;;;26.70;16.90;;;8.20;99.90;;;;;;4912947;29;20110;-72
2023/03/09 00:29:28;;;;;;;25.83;16.10;;;8.30;99.90;;;;;;4902834;29;20282;-70
2023/03/09 00:32:00;;;;;;;28.55;19.02;;;8.10;99.90;;;;;;4914981;29;20047;-71
2023/03/09 00:34:28;;;;;;;33.22;19.70;;;8.20;99.90;;;;;;4914149;29;20400;-72
2023/03/09 00:36:56;;;;;;;32.30;20.70;;;7.80;99.90;;;;;;4928913;29;20040;-74
2023/03/09 00:39:29;;;;;;;24.90;18.52;;;7.50;99.90;;;;;;4929820;29;20046;-73
2023/03/09 00:41:56;;;;;;;25.80;17.35;;;7.60;99.90;;;;;;4932848;29;20051;-73
2023/03/09 00:44:24;;;;;;;28.55;17.60;;;7.70;99.90;;;;;;4930590;29;20392;-72
2023/03/09 00:46:51;;;;;;;32.47;17.88;;;7.70;99.90;;;;;;4899303;29;20055;-72
2023/03/09 00:49:19;;;;;;;24.20;17.30;;;7.60;99.90;;;;;;4898237;29;20052;-73
2023/03/09 00:51:46;;;;;;;25.05;16.60;;;7.70;99.90;;;;;;4899242;29;20057;-72
2023/03/09 00:54:15;;;;;;;26.73;17.27;;;7.70;99.90;;;;;;4899662;29;20130;-73
2023/03/09 00:56:43;;;;;;;33.92;18.63;;;7.90;99.90;;;;;;4900215;29;20066;-73
2023/03/09 00:59:18;;;;;;;29.35;17.70;;;8.00;99.90;;;;;;4930734;29;20091;-72
2023/03/09 01:01:45;;;;;;;29.55;17.45;;;8.10;99.90;;;;;;4895565;29;20067;-73
2023/03/09 01:04:14;;;;;;;27.30;17.08;;;8.20;99.90;;;;;;4932287;29;20440;-73
2023/03/09 01:06:42;;;;;;;25.75;17.23;;;8.20;99.90;;;;;;4898597;29;20050;-73
2023/03/09 01:09:09;;;;;;;23.50;16.05;;;8.20;99.90;;;;;;4932513;29;20445;-72
2023/03/09 01:11:39;;;;;;;23.40;15.48;;;8.00;99.90;;;;;;4898760;29;20058;-72
2023/03/09 01:14:06;;;;;;;24.00;15.85;;;7.90;99.90;;;;;;4906123;29;20046;-72
2023/03/09 01:16:34;;;;;;;22.85;16.33;;;8.00;99.90;;;;;;4899678;29;20436;-72
2023/03/09 01:19:02;;;;;;;23.40;16.60;;;7.60;99.90;;;;;;4908092;29;20039;-71
2023/03/09 01:21:32;;;;;;;25.50;17.02;;;7.30;99.90;;;;;;4898340;29;20048;-73
2023/03/09 01:23:59;;;;;;;24.23;16.15;;;7.60;99.90;;;;;;4924452;29;20043;-72
2023/03/09 01:26:27;;;;;;;28.95;16.52;;;7.70;99.90;;;;;;4930768;29;20040;-72
2023/03/09 01:28:56;;;;;;;27.30;16.90;;;7.60;99.90;;;;;;4899220;29;20040;-73
2023/03/09 01:31:26;;;;;;;21.80;15.75;;;7.50;99.90;;;;;;4899960;29;20040;-73
2023/03/09 01:33:56;;;;;;;22.70;16.67;;;7.20;99.90;;;;;;4899333;29;20551;-74
2023/03/09 01:36:25;;;;;;;24.83;16.48;;;7.10;99.90;;;;;;4897695;29;20050;-72
2023/03/09 01:38:52;;;;;;;27.30;17.00;;;7.30;99.90;;;;;;4913907;29;20403;-73
2023/03/09 01:41:22;;;;;;;22.07;15.60;;;7.60;99.90;;;;;;4915264;29;20048;-73
2023/03/09 01:43:53;;;;;;;27.35;17.08;;;7.40;99.90;;;;;;4899233;29;20054;-73
2023/03/09 01:46:25;;;;;;;35.45;20.50;;;7.50;99.90;;;;;;4898465;29;20051;-72
2023/03/09 01:49:10;;;;;;;26.10;18.40;;;7.60;99.90;;;;;;4896460;29;20040;-72
2023/03/09 01:52:05;;;;;;;31.23;20.10;;;7.40;99.90;;;;;;4902335;29;20081;-73
2023/03/09 01:55:18;;;;;;;29.58;19.15;;;7.60;99.90;;;;;;4922427;29;20051;-70
2023/03/09 01:57:57;;;;;;;29.27;19.95;;;7.60;99.90;;;;;;4900175;29;20056;-73
2023/03/09 02:00:25;;;;;;;42.35;21.65;;;7.70;99.90;;;;;;4896686;29;20048;-73
2023/03/09 02:03:12;;;;;;;23.95;17.65;;;7.70;99.90;;;;;;4896542;29;20130;-73
2023/03/09 02:06:10;;;;;;;28.50;17.48;;;7.60;99.90;;;;;;4925112;29;20138;-73
2023/03/09 02:08:48;;;;;;;26.52;18.05;;;7.40;99.90;;;;;;4896728;29;20392;-72
2023/03/09 02:11:24;;;;;;;28.75;19.52;;;7.60;99.90;;;;;;4909967;23;20701;-74
2023/03/09 02:13:53;;;;;;;30.42;20.35;;;7.40;99.90;;;;;;4899964;29;20056;-73
2023/03/09 02:16:34;;;;;;;31.02;20.50;;;7.50;99.90;;;;;;4934556;23;20130;-73
2023/03/09 02:19:23;;;;;;;31.58;21.15;;;7.50;99.90;;;;;;4942448;28;20050;-74
2023/03/09 02:22:05;;;;;;;34.97;21.45;;;7.50;99.90;;;;;;4941269;29;20047;-73
2023/03/09 02:25:09;;;;;;;38.47;22.58;;;7.50;99.90;;;;;;4942130;29;20448;-72
2023/03/09 02:27:37;;;;;;;32.20;21.35;;;7.30;99.90;;;;;;4944633;29;20073;-72
2023/03/09 02:30:09;;;;;;;34.70;21.80;;;7.30;99.90;;;;;;4946002;29;20039;-72
2023/03/09 02:32:36;;;;;;;30.73;21.83;;;7.20;99.90;;;;;;4938677;29;20147;-75
2023/03/09 02:35:09;;;;;;;43.38;23.60;;;7.20;99.90;;;;;;4932167;29;20400;-72
2023/03/09 02:37:39;;;;;;;39.70;23.67;;;7.20;99.90;;;;;;4924588;29;20047;-72
2023/03/09 02:40:21;;;;;;;36.10;23.63;;;7.00;99.90;;;;;;4932427;29;20496;-74
2023/03/09 02:42:53;;;;;;;50.28;24.90;;;6.90;99.90;;;;;;4926940;29;20506;-73
2023/03/09 02:45:21;;;;;;;38.70;24.95;;;6.70;99.90;;;;;;4933451;29;20043;-73
2023/03/09 02:47:50;;;;;;;38.03;25.77;;;6.80;99.90;;;;;;4928592;29;20058;-73
2023/03/09 02:50:18;;;;;;;39.42;24.50;;;7.00;99.90;;;;;;4932255;29;20138;-72
2023/03/09 02:52:45;;;;;;;39.53;24.08;;;7.10;99.90;;;;;;4922956;29;20066;-72
2023/03/09 02:55:13;;;;;;;40.45;24.67;;;6.70;99.90;;;;;;4933603;29;20044;-71
2023/03/09 02:57:41;;;;;;;41.97;26.30;;;6.70;99.90;;;;;;4929728;29;20059;-72
2023/03/09 03:00:13;;;;;;;50.90;28.13;;;6.60;99.90;;;;;;4952025;28;20046;-73
2023/03/09 03:02:41;;;;;;;40.38;25.50;;;6.70;99.90;;;;;;4930577;29;20056;-71
2023/03/09 03:05:10;;;;;;;35.17;23.15;;;6.60;99.90;;;;;;4937819;29;20048;-73
2023/03/09 03:07:37;;;;;;;39.92;25.13;;;6.80;99.90;;;;;;4946769;29;20519;-72
2023/03/09 03:10:05;;;;;;;33.70;23.52;;;6.70;99.90;;;;;;4933759;29;20043;-72
2023/03/09 03:12:35;;;;;;;34.28;22.75;;;6.90;99.90;;;;;;4929604;29;20039;-73
2023/03/09 03:15:05;;;;;;;40.80;24.38;;;6.90;99.90;;;;;;4932736;29;20050;-73
2023/03/09 03:17:36;;;;;;;41.15;23.35;;;6.90;99.90;;;;;;4930902;29;20415;-73
2023/03/09 03:20:05;;;;;;;38.03;23.60;;;6.90;99.90;;;;;;4931222;29;20131;-72
2023/03/09 03:22:32;;;;;;;32.03;21.60;;;6.80;99.90;;;;;;4931566;29;20039;-72
2023/03/09 03:25:00;;;;;;;35.03;21.10;;;6.80;99.90;;;;;;4950985;29;20043;-74
2023/03/09 03:27:27;;;;;;;31.05;20.25;;;6.80;99.90;;;;;;4942609;29;20070;-72
2023/03/09 03:29:54;;;;;;;27.85;19.35;;;6.70;99.90;;;;;;4951580;28;20043;-73
2023/03/09 03:32:25;;;;;;;27.90;18.73;;;6.80;99.90;;;;;;4942503;29;20036;-73
2023/03/09 03:34:53;;;;;;;27.35;18.85;;;6.70;99.90;;;;;;4927088;29;20054;-73
2023/03/09 03:37:21;;;;;;;32.40;18.95;;;6.60;99.90;;;;;;4943474;29;20101;-73
2023/03/09 03:39:49;;;;;;;24.75;16.92;;;6.60;99.90;;;;;;4936431;29;20065;-74
2023/03/09 03:42:16;;;;;;;27.98;17.63;;;6.60;99.90;;;;;;4941357;29;20055;-72
2023/03/09 03:44:47;;;;;;;27.70;17.05;;;6.70;99.90;;;;;;4936509;29;20380;-74
2023/03/09 03:47:14;;;;;;;25.17;16.00;;;6.80;99.90;;;;;;4930315;29;20054;-74
2023/03/09 03:49:41;;;;;;;22.63;15.18;;;6.80;99.90;;;;;;4953122;28;20403;-73
2023/03/09 03:52:09;;;;;;;21.30;15.27;;;6.90;99.90;;;;;;4930400;29;20455;-73
2023/03/09 03:54:36;;;;;;;19.77;14.25;;;6.80;99.90;;;;;;4935565;29;20377;-74
2023/03/09 03:57:06;;;;;;;21.52;15.48;;;6.80;99.90;;;;;;4941130;29;20039;-73
2023/03/09 03:59:43;;;;;;;19.30;13.93;;;6.80;99.90;;;;;;4932564;29;20051;-73
2023/03/09 04:02:13;;;;;;;22.17;15.05;;;6.80;99.90;;;;;;4933369;29;20475;-72
2023/03/09 04:04:51;;;;;;;21.45;14.45;;;6.80;99.90;;;;;;4941801;29;20078;-73
2023/03/09 04:07:35;;;;;;;20.52;13.77;;;6.80;99.90;;;;;;4935420;29;20043;-73
2023/03/09 04:10:08;;;;;;;18.35;13.68;;;6.70;99.90;;;;;;4942789;29;20061;-73
2023/03/09 04:12:41;;;;;;;18.25;14.23;;;6.70;99.90;;;;;;4951619;29;20558;-74
2023/03/09 04:15:09;;;;;;;22.02;13.68;;;6.40;99.90;;;;;;4946254;28;20048;-73
2023/03/09 04:17:37;;;;;;;16.92;13.57;;;6.30;99.90;;;;;;4927301;29;20408;-74
2023/03/09 04:20:05;;;;;;;18.63;13.05;;;6.40;99.90;;;;;;4952484;29;20428;-74
2023/03/09 04:22:43;;;;;;;18.35;12.85;;;6.60;99.90;;;;;;4950546;29;20047;-72
2023/03/09 04:25:10;;;;;;;18.13;12.88;;;6.70;99.90;;;;;;4941631;29;20145;-74
2023/03/09 04:27:37;;;;;;;19.77;12.95;;;6.50;99.90;;;;;;4935302;29;20043;-73
2023/03/09 04:30:06;;;;;;;18.88;12.98;;;6.50;99.90;;;;;;4947331;29;20065;-74
2023/03/09 04:32:33;;;;;;;19.17;13.00;;;6.50;99.90;;;;;;4932086;29;20499;-73
2023/03/09 04:35:01;;;;;;;16.33;12.50;;;6.50;99.90;;;;;;4930430;23;20713;-74
2023/03/09 04:37:28;;;;;;;18.13;12.70;;;6.30;99.90;;;;;;4909852;29;20067;-74
2023/03/09 04:39:56;;;;;;;18.90;12.65;;;6.30;99.90;;;;;;4906657;29;20079;-73
2023/03/09 04:42:23;;;;;;;19.27;12.57;;;6.50;99.90;;;;;;4909999;29;20392;-73
2023/03/09 04:44:52;;;;;;;17.05;12.35;;;6.20;99.90;;;;;;4907288;29;20054;-73
2023/03/09 04:47:20;;;;;;;18.48;13.25;;;6.10;99.90;;;;;;4921882;29;20036;-70
2023/03/09 04:49:55;;;;;;;18.33;13.30;;;6.20;99.90;;;;;;4906124;29;20044;-72
2023/03/09 04:52:23;;;;;;;18.75;12.85;;;6.30;99.90;;;;;;4906811;29;20047;-71
2023/03/09 04:54:50;;;;;;;18.27;12.60;;;6.50;99.90;;;;;;4915462;23;20039;-72
2023/03/09 04:57:18;;;;;;;18.40;12.38;;;6.70;99.90;;;;;;4940852;29;20039;-71
2023/03/09 04:59:46;;;;;;;16.85;12.00;;;6.60;99.90;;;;;;4913365;29;20047;-72
2023/03/09 05:02:19;;;;;;;14.32;11.35;;;6.50;99.90;;;;;;4909283;29;20031;-72
2023/03/09 05:04:49;;;;;;;14.40;11.73;;;6.60;99.90;;;;;;4912267;29;20040;-72
2023/03/09 05:07:17;;;;;;;18.88;13.18;;;6.50;99.90;;;;;;4942335;29;20123;-73
2023/03/09 05:09:44;;;;;;;15.05;12.32;;;6.40;99.90;;;;;;4923442;29;20055;-71
2023/03/09 05:12:14;;;;;;;19.47;12.63;;;6.50;99.90;;;;;;4908975;29;20506;-72
2023/03/09 05:14:42;;;;;;;16.65;12.68;;;6.50;99.90;;;;;;4925575;29;20051;-73
2023/03/09 05:17:10;;;;;;;24.02;12.95;;;6.30;99.90;;;;;;4911216;29;20043;-71
2023/03/09 05:19:41;;;;;;;23.15;13.40;;;6.40;99.90;;;;;;4908463;29;20147;-73
2023/03/09 05:22:11;;;;;;;;;;;6.40;99.90;;;;;;4915974;23;20044;-73
2023/03/09 05:24:43;;;;;;;20.30;12.35;;;6.50;99.90;;;;;;4910250;29;20029;-73
2023/03/09 05:27:12;;;;;;;15.77;11.95;;;6.70;99.90;;;;;;4908270;29;20071;-72
2023/03/09 05:29:40;;;;;;;14.35;11.48;;;6.60;99.90;;;;;;4943239;29;20046;-73
2023/03/09 05:32:14;;;;;;;19.58;12.48;;;6.50;99.90;;;;;;4908722;29;20058;-74
2023/03/09 05:34:41;;;;;;;21.98;14.25;;;6.70;99.90;;;;;;4908566;29;20051;-71
2023/03/09 05:37:08;;;;;;;25.58;14.77;;;6.70;99.90;;;;;;4938246;29;20062;-72
2023/03/09 05:39:38;;;;;;;25.33;15.55;;;6.80;99.90;;;;;;4908804;29;20055;-72
2023/03/09 05:42:10;;;;;;;25.13;16.30;;;6.90;99.90;;;;;;4908057;29;20054;-72
2023/03/09 05:44:37;;;;;;;28.67;17.48;;;7.00;99.90;;;;;;4922078;29;20044;-71
2023/03/09 05:47:08;;;;;;;36.08;19.17;;;7.10;99.90;;;;;;4901674;29;20399;-71
2023/03/09 05:49:40;;;;;;;33.58;18.75;;;7.20;99.90;;;;;;4910570;29;20074;-71
2023/03/09 05:52:07;;;;;;;29.52;17.73;;;7.20;99.90;;;;;;4937401;29;20040;-75
2023/03/09 05:54:39;;;;;;;22.30;15.80;;;7.20;99.90;;;;;;4910485;29;20050;-73
2023/03/09 05:57:12;;;;;;;33.38;22.98;;;7.30;99.90;;;;;;4922717;29;20032;-74
2023/03/09 05:59:43;;;;;;;64.13;36.75;;;7.20;99.90;;;;;;4923056;29;20416;-74
2023/03/09 06:02:13;;;;;;;148.45;86.97;;;7.00;99.90;;;;;;4924197;29;20392;-72
2023/03/09 06:04:42;;;;;;;146.13;86.07;;;7.30;99.90;;;;;;4923741;29;20047;-74
2023/03/09 06:07:10;;;;;;;88.90;52.90;;;7.50;99.90;;;;;;4923086;29;20485;-73
2023/03/09 06:09:38;;;;;;;35.47;24.50;;;7.70;99.90;;;;;;4929385;29;20313;-73
2023/03/09 06:12:05;;;;;;;22.95;16.38;;;7.70;99.90;;;;;;4920110;29;20139;-71
2023/03/09 06:14:33;;;;;;;21.63;14.93;;;7.60;99.90;;;;;;4895847;29;20066;-70
2023/03/09 06:17:02;;;;;;;18.17;14.15;;;7.40;99.90;;;;;;4923880;29;20056;-70
2023/03/09 06:19:30;;;;;;;20.10;14.73;;;7.60;99.90;;;;;;4918780;29;20032;-72
2023/03/09 06:21:59;;;;;;;27.13;15.98;;;7.70;99.90;;;;;;4898442;29;20147;-70
2023/03/09 06:24:27;;;;;;;24.63;15.23;;;7.70;99.90;;;;;;4911927;29;20044;-68
2023/03/09 06:26:57;;;;;;;23.83;14.30;;;7.50;99.90;;;;;;4910719;29;20294;-71
2023/03/09 06:29:27;;;;;;;23.80;13.00;;;7.50;99.90;;;;;;4899962;29;20074;-72
2023/03/09 06:31:55;;;;;;;84.47;49.67;;;7.60;99.90;;;;;;4907751;29;20075;-72
2023/03/09 06:34:22;;;;;;;87.43;49.13;;;7.90;99.90;;;;;;4926332;29;20481;-72
2023/03/09 06:36:49;;;;;;;28.35;18.60;;;8.10;99.90;;;;;;4910903;29;20044;-73
2023/03/09 06:39:16;;;;;;;21.73;15.68;;;7.80;99.90;;;;;;4923302;29;20044;-73
2023/03/09 06:41:44;;;;;;;21.73;15.75;;;7.70;99.90;;;;;;4907857;29;20049;-73
2023/03/09 06:44:11;;;;;;;25.73;16.42;;;7.70;99.90;;;;;;4900932;29;20067;-72
2023/03/09 06:46:41;;;;;;;22.95;17.00;;;7.60;99.90;;;;;;4901353;29;20083;-73
2023/03/09 06:49:08;;;;;;;20.15;14.38;;;7.60;99.90;;;;;;4919979;29;20044;-73
2023/03/09 06:51:36;;;;;;;18.00;13.32;;;7.70;99.90;;;;;;4902763;29;20148;-73
2023/03/09 06:54:09;;;;;;;17.97;11.40;;;7.90;99.90;;;;;;4924800;23;20048;-72
2023/03/09 06:56:36;;;;;;;13.95;10.50;;;8.00;99.90;;;;;;4931996;29;20290;-73
2023/03/09 06:59:03;;;;;;;16.23;10.50;;;8.10;99.90;;;;;;4952275;29;20432;-72
2023/03/09 07:01:31;;;;;;;17.73;11.73;;;8.20;99.90;;;;;;4952240;29;20047;-71
2023/03/09 07:04:04;;;;;;;13.95;11.05;;;8.20;99.90;;;;;;4936331;29;20047;-73
2023/03/09 07:06:40;;;;;;;14.68;10.65;;;8.30;99.90;;;;;;4913985;29;20048;-73
2023/03/09 07:09:17;;;;;;;15.98;10.63;;;8.40;99.90;;;;;;4912448;29;20429;-72
2023/03/09 07:11:48;;;;;;;17.63;11.32;;;7.90;99.90;;;;;;4922251;29;20048;-73
2023/03/09 07:14:18;;;;;;;17.02;11.10;;;7.90;99.90;;;;;;4937244;29;20061;-73
2023/03/09 07:16:51;;;;;;;15.88;11.07;;;8.20;99.90;;;;;;4927876;29;20074;-72
2023/03/09 07:19:19;;;;;;;17.50;11.45;;;8.40;99.90;;;;;;4954013;29;20435;-72
2023/03/09 07:21:49;;;;;;;15.93;12.02;;;8.50;99.90;;;;;;4933661;29;20400;-73
2023/03/09 07:24:18;;;;;;;17.67;12.90;;;8.40;99.90;;;;;;4919050;29;20062;-74
2023/03/09 07:26:55;;;;;;;17.05;12.50;;;8.50;99.90;;;;;;4933452;29;20047;-75
2023/03/09 07:29:26;;;;;;;21.77;13.43;;;8.80;99.90;;;;;;4921197;23;20048;-73
2023/03/09 07:31:55;;;;;;;16.98;12.90;;;8.80;99.90;;;;;;4918612;29;20048;-73
2023/03/09 07:34:23;;;;;;;16.88;12.82;;;8.90;99.90;;;;;;4947024;29;20059;-73
2023/03/09 07:36:51;;;;;;;19.40;13.65;;;8.90;99.90;;;;;;4921469;29;20043;-74
2023/03/09 07:39:28;;;;;;;15.55;12.32;;;9.10;99.90;;;;;;4941122;23;20043;-71
2023/03/09 07:41:55;;;;;;;16.55;11.57;;;9.20;99.90;;;;;;4922068;29;20047;-71
2023/03/09 07:44:25;;;;;;;18.80;12.05;;;9.30;99.90;;;;;;4933307;29;20043;-71
2023/03/09 07:46:59;;;;;;;18.42;12.40;;;9.30;99.90;;;;;;4936831;29;20388;-71
2023/03/09 07:49:28;;;;;;;17.48;12.30;;;9.40;99.90;;;;;;4919040;29;20043;-72
2023/03/09 07:51:58;;;;;;;16.83;13.05;;;9.50;99.90;;;;;;4926297;29;20102;-72
2023/03/09 07:54:25;;;;;;;17.02;12.00;;;9.60;99.90;;;;;;4944289;29;20505;-73
2023/03/09 07:56:56;;;;;;;;;;;9.80;99.90;;;;;;4954970;29;20059;-73
2023/03/09 07:59:31;;;;;;;16.92;11.50;;;10.00;99.90;;;;;;4937873;29;19926;-71
2023/03/09 08:01:58;;;;;;;17.80;12.55;;;10.10;99.90;;;;;;4937859;29;20046;-75
2023/03/09 08:04:26;;;;;;;15.82;11.15;;;10.10;99.90;;;;;;4943403;29;20054;-72
2023/03/09 08:06:53;;;;;;;16.70;11.48;;;10.30;99.90;;;;;;4934586;29;20546;-70
2023/03/09 08:09:21;;;;;;;20.70;11.75;;;10.50;99.90;;;;;;4937434;29;20456;-72
2023/03/09 08:11:48;;;;;;;18.63;11.90;;;10.70;99.90;;;;;;4910250;29;20062;-73
2023/03/09 08:14:16;;;;;;;14.52;10.32;;;10.90;99.90;;;;;;4922267;29;20464;-73
2023/03/09 08:16:44;;;;;;;14.13;10.15;;;11.00;99.90;;;;;;4936604;29;20055;-71
2023/03/09 08:19:12;;;;;;;12.93;9.57;;;11.20;99.90;;;;;;4920142;29;20144;-71
2023/03/09 08:21:50;;;;;;;12.68;8.48;;;11.30;99.90;;;;;;4916227;29;20059;-71
2023/03/09 08:24:21;;;;;;;11.90;8.35;;;11.30;99.90;;;;;;4896741;29;20447;-74
2023/03/09 08:26:49;;;;;;;15.10;8.15;;;11.50;99.90;;;;;;4934998;29;20039;-74
2023/03/09 08:29:16;;;;;;;11.32;7.05;;;11.60;99.60;;;;;;4921597;29;20401;-74
2023/03/09 08:31:44;;;;;;;9.98;6.32;;;11.70;98.40;;;;;;4932827;29;20044;-73
2023/03/09 08:34:11;;;;;;;8.63;5.60;;;11.60;97.70;;;;;;4902227;29;20412;-74
2023/03/09 08:36:43;;;;;;;10.90;6.53;;;11.70;97.80;;;;;;4918570;29;20396;-75
2023/03/09 08:39:15;;;;;;;8.48;6.65;;;11.90;97.60;;;;;;4899792;29;20047;-72
2023/03/09 08:41:45;;;;;;;12.57;7.53;;;11.90;97.40;;;;;;4918518;29;20122;-73
2023/03/09 08:44:14;;;;;;;10.02;6.88;;;12.10;97.20;;;;;;4917655;29;20048;-72
2023/03/09 08:46:44;;;;;;;11.40;7.32;;;12.30;97.00;;;;;;4906127;29;20060;-72
2023/03/09 08:49:20;;;;;;;10.38;6.82;;;12.40;96.30;;;;;;4917865;29;20051;-73
2023/03/09 08:51:50;;;;;;;12.63;7.20;;;12.50;95.70;;;;;;4918083;29;20070;-72
2023/03/09 08:54:17;;;;;;;9.85;6.53;;;12.60;95.80;;;;;;4931908;29;20051;-71
2023/03/09 08:56:46;;;;;;;14.73;6.60;;;12.70;95.40;;;;;;4902326;29;20042;-73
2023/03/09 08:59:14;;;;;;;11.70;7.00;;;12.90;95.20;;;;;;4924970;29;20123;-72
2023/03/09 09:01:41;;;;;;;9.15;6.97;;;13.10;94.30;;;;;;4901712;29;20048;-71
2023/03/09 09:04:15;;;;;;;11.05;5.53;;;13.30;94.60;;;;;;4898336;29;20051;-75
2023/03/09 09:06:44;;;;;;;8.07;4.80;;;13.70;93.30;;;;;;4902311;29;20067;-75
2023/03/09 09:09:24;;;;;;;7.97;5.00;;;13.70;92.60;;;;;;4916029;29;20075;-76
2023/03/09 09:11:51;;;;;;;8.55;5.50;;;13.70;91.80;;;;;;4908736;29;20396;-73
2023/03/09 09:14:21;;;;;;;9.88;5.68;;;13.80;91.50;;;;;;4920188;29;20059;-74
2023/03/09 09:16:51;;;;;;;8.43;5.38;;;14.00;91.80;;;;;;4933427;29;20046;-74
2023/03/09 09:19:24;;;;;;;11.45;6.13;;;14.10;91.40;;;;;;4933197;29;20067;-74
2023/03/09 09:21:52;;;;;;;9.57;5.55;;;14.50;91.70;;;;;;4908397;29;20695;-71
2023/03/09 09:24:19;;;;;;;7.75;5.43;;;14.70;90.10;;;;;;4912368;29;20496;-73
2023/03/09 09:26:47;;;;;;;8.45;5.57;;;14.90;90.50;;;;;;4930514;29;20063;-70
2023/03/09 09:29:14;;;;;;;7.30;5.10;;;14.90;89.70;;;;;;4931150;29;20432;-70
2023/03/09 09:31:41;;;;;;;6.95;4.85;;;14.90;88.70;;;;;;4908543;29;20055;-73
2023/03/09 09:34:09;;;;;;;9.75;5.72;;;14.90;88.20;;;;;;4916331;29;20075;-72
2023/03/09 09:36:39;;;;;;;8.93;5.38;;;14.90;88.40;;;;;;4925947;29;20042;-71
2023/03/09 09:39:07;;;;;;;;;;;15.10;88.40;;;;;;4913844;29;20403;-72
2023/03/09 09:41:45;;;;;;;9.32;4.88;;;15.40;86.50;;;;;;4912977;29;19926;-73
2023/03/09 09:44:18;;;;;;;7.53;5.53;;;15.30;84.80;;;;;;4927910;29;20381;-71
2023/03/09 09:46:47;;;;;;;6.80;4.43;;;15.40;85.30;;;;;;4932954;29;20047;-70
2023/03/09 09:49:20;;;;;;;7.72;4.70;;;15.60;85.40;;;;;;4915322;29;20055;-71
2023/03/09 09:52:29;;;;;;;6.60;4.47;;;15.80;84.30;;;;;;4911426;29;20052;-69
2023/03/09 09:55:29;;;;;;;7.22;4.72;;;16.20;83.30;;;;;;4871920;29;20533;-70
2023/03/09 09:58:32;;;;;;;7.40;3.78;;;16.40;83.20;;;;;;4926860;29;20039;-70
2023/03/09 10:01:06;;;;;;;5.30;3.97;;;16.30;82.40;;;;;;4871767;29;20058;-71
2023/03/09 10:03:40;;;;;;;7.22;4.07;;;16.50;83.40;;;;;;4907479;29;20063;-71
2023/03/09 10:06:21;;;;;;;7.78;4.60;;;16.70;81.70;;;;;;4906326;29;20115;-74
2023/03/09 10:08:59;;;;;;;8.27;5.05;;;16.40;82.90;;;;;;4930981;29;20119;-73
2023/03/09 10:11:41;;;;;;;7.60;4.50;;;16.60;83.90;;;;;;4913787;29;20444;-73
2023/03/09 10:14:20;;;;;;;8.45;4.30;;;16.80;81.90;;;;;;4933101;29;20039;-72
2023/03/09 10:16:52;;;;;;;6.95;4.18;;;17.00;84.20;;;;;;4932215;29;20047;-74
2023/03/09 10:19:41;;;;;;;9.25;4.78;;;17.00;81.50;;;;;;4915989;29;20131;-72
2023/03/09 10:22:16;;;;;;;8.63;4.28;;;17.00;81.10;;;;;;4922202;29;20048;-71
2023/03/09 10:24:51;;;;;;;7.40;4.28;;;17.30;80.70;;;;;;4890192;29;20139;-72
2023/03/09 10:27:28;;;;;;;7.45;3.90;;;17.50;80.10;;;;;;4916492;29;20141;-72
2023/03/09 10:30:40;;;;;;;8.48;3.90;;;17.60;80.30;;;;;;4930669;29;20042;-72
2023/03/09 10:33:26;;;;;;;6.80;3.58;;;17.60;77.20;;;;;;4931898;29;20132;-71
2023/03/09 10:36:11;;;;;;;8.43;3.75;;;17.90;77.80;;;;;;4932079;29;20047;-69
2023/03/09 10:38:39;;;;;;;8.55;4.47;;;18.10;76.50;;;;;;4933054;29;20106;-73
2023/03/09 10:41:19;;;;;;;7.22;4.07;;;18.50;77.10;;;;;;4936314;29;20040;-72
2023/03/09 10:43:46;;;;;;;7.88;4.47;;;18.70;74.20;;;;;;4918536;29;20062;-72
2023/03/09 10:46:20;;;;;;;6.65;3.80;;;18.90;75.30;;;;;;4912413;29;20397;-72
2023/03/09 10:48:49;;;;;;;4.88;2.70;;;19.10;72.30;;;;;;4936055;29;20396;-73
2023/03/09 10:51:30;;;;;;;6.75;4.22;;;18.80;71.40;;;;;;4934124;29;20400;-73
2023/03/09 10:54:20;;;;;;;5.70;3.30;;;18.50;72.30;;;;;;4936233;29;20040;-71
2023/03/09 10:56:47;;;;;;;5.80;3.08;;;18.80;73.30;;;;;;4935649;29;20051;-71
2023/03/09 10:59:28;;;;;;;8.18;3.15;;;18.80;72.80;;;;;;4930500;29;20067;-74
2023/03/09 11:01:59;;;;;;;4.70;2.90;;;19.00;71.50;;;;;;4934222;29;20448;-73
2023/03/09 11:04:29;;;;;;;5.03;3.03;;;18.90;70.70;;;;;;4936035;29;20044;-74
2023/03/09 11:06:59;;;;;;;8.32;3.33;;;19.20;69.90;;;;;;4935379;29;20466;-73
2023/03/09 11:09:53;;;;;;;6.85;3.10;;;19.10;70.30;;;;;;4928653;29;20042;-73
2023/03/09 11:12:32;;;;;;;12.90;5.95;;;19.20;69.90;;;;;;4931469;29;20089;-72
2023/03/09 11:15:22;;;;;;;13.15;5.28;;;19.80;72.50;;;;;;4929243;29;20040;-73
2023/03/09 11:17:50;;;;;;;8.13;3.63;;;21.10;67.20;;;;;;4923994;29;20480;-74
2023/03/09 11:20:29;;;;;;;8.43;3.05;;;22.60;61.80;;;;;;4934305;29;20436;-72
2023/03/09 11:23:27;;;;;;;6.05;2.97;;;23.00;59.90;;;;;;4930798;29;20455;-72
2023/03/09 11:26:42;;;;;;;5.95;2.88;;;22.70;59.00;;;;;;4933640;29;20134;-71
2023/03/09 11:29:38;;;;;;;5.95;2.90;;;21.00;64.50;;;;;;4853111;29;20076;-73
2023/03/09 11:32:10;;;;;;;6.38;2.80;;;20.40;66.10;;;;;;4924511;29;20036;-72
2023/03/09 11:34:41;;;;;;;5.13;2.70;;;20.10;67.20;;;;;;4934653;29;20047;-74
2023/03/09 11:37:23;;;;;;;5.70;2.70;;;20.60;66.40;;;;;;4935275;29;20135;-72
2023/03/09 11:40:20;;;;;;;10.40;3.85;;;20.90;64.00;;;;;;4941007;29;20063;-73
2023/03/09 11:43:07;;;;;;;5.18;2.95;;;21.00;66.30;;;;;;4924824;29;20075;-74
2023/03/09 11:45:37;;;;;;;5.05;2.03;;;21.00;64.40;;;;;;4932889;29;20500;-72
2023/03/09 11:48:26;;;;;;;5.13;2.70;;;21.20;63.80;;;;;;4928617;29;20404;-70
2023/03/09 11:51:02;;;;;;;5.20;2.22;;;21.30;63.40;;;;;;4934591;29;20040;-72
2023/03/09 11:53:39;;;;;;;4.82;2.15;;;21.30;62.80;;;;;;4935629;29;20063;-73
2023/03/09 11:56:12;;;;;;;3.50;1.70;;;21.40;62.70;;;;;;4927167;29;20050;-71
2023/03/09 11:58:42;;;;;;;4.70;1.90;;;21.70;62.60;;;;;;4935583;29;20054;-71
2023/03/09 12:01:25;;;;;;;4.85;2.30;;;21.30;62.80;;;;;;4935674;29;20452;-70
2023/03/09 12:04:02;;;;;;;3.95;2.20;;;21.30;63.40;;;;;;4934834;29;20428;-72
2023/03/09 12:06:37;;;;;;;5.85;2.22;;;21.50;62.90;;;;;;4935599;29;20456;-73
2023/03/09 12:09:17;;;;;;;3.60;2.20;;;21.70;62.40;;;;;;4899842;29;20047;-72
2023/03/09 12:11:56;;;;;;;4.15;2.13;;;22.00;61.60;;;;;;4929317;29;20054;-73
2023/03/09 12:14:49;;;;;;;4.00;2.00;;;21.90;61.40;;;;;;4900394;29;20445;-75
2023/03/09 12:17:31;;;;;;;10.38;2.40;;;21.90;61.60;;;;;;4913578;29;20070;-75
2023/03/09 12:20:01;;;;;;;7.32;2.22;;;22.20;59.80;;;;;;4917760;29;20055;-74
2023/03/09 12:22:38;;;;;;;4.15;1.85;;;22.40;59.50;;;;;;4908644;29;20501;-75
2023/03/09 12:25:15;;;;;;;4.82;1.77;;;23.40;59.60;;;;;;4916678;29;20515;-75
2023/03/09 12:27:49;;;;;;;3.50;1.80;;;24.40;57.90;;;;;;4917260;29;20107;-74
2023/03/09 12:30:50;;;;;;;6.60;1.70;;;26.20;55.20;;;;;;4910027;29;20048;-75
2023/03/09 12:34:03;;;;;;;4.63;2.10;;;28.50;51.10;;;;;;4916395;29;20142;-74
2023/03/09 12:36:44;;;;;;;5.78;2.67;;;29.40;47.90;;;;;;4909496;29;20055;-74
2023/03/09 12:39:24;;;;;;;23.10;14.40;;;29.10;48.10;;;;;;4933223;29;20259;-75
2023/03/09 12:42:06;;;;;;;6.15;3.33;;;29.20;48.10;;;;;;4933998;29;20062;-72
2023/03/09 12:44:43;;;;;;;5.18;2.00;;;29.60;47.70;;;;;;4918414;29;20039;-75
2023/03/09 12:47:42;;;;;;;3.63;1.80;;;29.90;47.50;;;;;;4917696;29;20036;-76
2023/03/09 12:50:40;;;;;;;7.85;3.63;;;30.30;46.30;;;;;;4917920;29;20058;-75
2023/03/09 12:53:12;;;;;;;3.92;1.90;;;30.70;45.50;;;;;;4934056;29;20066;-76
2023/03/09 12:55:39;;;;;;;7.25;1.73;;;30.10;46.00;;;;;;4923773;29;20040;-74
2023/03/09 12:58:21;;;;;;;6.15;2.50;;;30.20;46.00;;;;;;4917444;29;20079;-74
2023/03/09 13:01:18;;;;;;;5.13;3.05;;;31.50;45.10;;;;;;4935100;29;20143;-75
2023/03/09 13:04:09;;;;;;;4.35;1.90;;;32.20;44.60;;;;;;4928199;29;20051;-77
2023/03/09 13:06:55;;;;;;;6.57;3.90;;;31.70;43.40;;;;;;4902479;29;20067;-74
2023/03/09 13:09:31;;;;;;;3.85;1.98;;;32.00;43.80;;;;;;4917009;29;20048;-75
2023/03/09 13:12:04;;;;;;;4.90;2.03;;;32.00;43.00;;;;;;4934443;29;20071;-74